createdAt,value
2022-09-15T00:01:02.017Z,96745.44
2022-09-15T00:03:28.658Z,96662.13
2022-09-15T00:05:55.363Z,96740.75
2022-09-15T00:08:23.551Z,96603.78
2022-09-15T00:11:11.675Z,96733.63
2022-09-15T00:13:39.720Z,96719.31
2022-09-15T00:16:08.295Z,96638.72
2022-09-15T00:18:35.882Z,96682.00
2022-09-15T00:21:10.661Z,96567.69
2022-09-15T00:23:38.069Z,96708.16
2022-09-15T00:26:12.648Z,96706.56
2022-09-15T00:28:39.788Z,96630.34
2022-09-15T00:31:09.420Z,96658.09
2022-09-15T00:33:36.447Z,96681.13
2022-09-15T00:36:06.704Z,96478.00
2022-09-15T00:38:34.677Z,96700.59
2022-09-15T00:41:02.155Z,96699.47
2022-09-15T00:43:53.232Z,96699.41
2022-09-15T00:46:25.551Z,96696.75
2022-09-15T00:49:01.005Z,96705.06
2022-09-15T00:52:00.016Z,96707.44
2022-09-15T00:54:30.975Z,96659.75
2022-09-15T00:57:01.987Z,96708.31
2022-09-15T00:59:32.018Z,96556.22
2022-09-15T01:02:12.184Z,96724.22
2022-09-15T01:04:39.149Z,96713.94
2022-09-15T01:07:07.810Z,96624.28
2022-09-15T01:09:45.117Z,96622.59
2022-09-15T01:12:11.832Z,96648.84
2022-09-15T01:14:38.760Z,96690.84
2022-09-15T01:17:11.655Z,96650.41
2022-09-15T01:20:07.532Z,96710.69
2022-09-15T01:23:01.925Z,96704.38
2022-09-15T01:25:51.950Z,96700.41
2022-09-15T01:29:04.531Z,96691.72
2022-09-15T01:31:37.010Z,96650.47
2022-09-15T01:34:15.022Z,96635.38
2022-09-15T01:36:53.092Z,96689.78
2022-09-15T01:39:32.255Z,96500.78
2022-09-15T01:42:12.628Z,96670.25
2022-09-15T01:44:45.207Z,96685.31
2022-09-15T01:47:15.991Z,96688.50
2022-09-15T01:49:54.811Z,96677.38
2022-09-15T01:52:23.506Z,96673.44
2022-09-15T01:54:57.331Z,96678.22
2022-09-15T01:57:24.279Z,96633.75
2022-09-15T01:59:54.095Z,96681.38
2022-09-15T02:02:22.945Z,96678.25
2022-09-15T02:04:54.879Z,96618.69
2022-09-15T02:07:40.212Z,96690.91
2022-09-15T02:10:26.997Z,96681.78
2022-09-15T02:13:06.187Z,96704.44
2022-09-15T02:15:48.076Z,96696.16
2022-09-15T02:18:30.561Z,96602.81
2022-09-15T02:21:10.381Z,96702.91
2022-09-15T02:23:43.727Z,96697.72
2022-09-15T02:26:16.864Z,96648.09
2022-09-15T02:28:46.585Z,96707.72
2022-09-15T02:31:16.476Z,96707.72
2022-09-15T02:33:49.713Z,96706.84
2022-09-15T02:36:19.881Z,96700.91
2022-09-15T02:38:54.251Z,96694.13
2022-09-15T02:41:21.282Z,96691.00
2022-09-15T02:43:49.320Z,96687.81
2022-09-15T02:46:18.784Z,96692.19
2022-09-15T02:48:45.489Z,96646.47
2022-09-15T02:51:13.251Z,96640.16
2022-09-15T02:53:40.120Z,96683.38
2022-09-15T02:56:07.208Z,96690.13
2022-09-15T02:58:34.792Z,96699.06
2022-09-15T03:01:04.223Z,96692.69
2022-09-15T03:03:32.460Z,96522.75
2022-09-15T03:06:16.510Z,96673.59
2022-09-15T03:08:55.384Z,96694.31
2022-09-15T03:11:24.173Z,96629.56
2022-09-15T03:13:56.087Z,96690.31
2022-09-15T03:16:23.271Z,96664.88
2022-09-15T03:18:49.995Z,96626.72
2022-09-15T03:21:18.100Z,96598.91
2022-09-15T03:23:45.551Z,96688.69
2022-09-15T03:26:12.681Z,96684.81
2022-09-15T03:28:40.499Z,96684.50
2022-09-15T03:31:08.650Z,96684.88
2022-09-15T03:33:36.162Z,96617.34
2022-09-15T03:36:03.268Z,96655.47
2022-09-15T03:38:30.369Z,96683.66
2022-09-15T03:41:08.671Z,96692.00
2022-09-15T03:43:36.507Z,96696.75
2022-09-15T03:46:06.586Z,96684.81
2022-09-15T03:48:35.527Z,96658.19
2022-09-15T03:51:03.972Z,96698.31
2022-09-15T03:53:39.236Z,96671.25
2022-09-15T03:56:08.793Z,96681.59
2022-09-15T03:58:35.429Z,96687.16
2022-09-15T04:01:02.064Z,96598.94
2022-09-15T04:03:28.648Z,96657.75
2022-09-15T04:05:55.259Z,96629.88
2022-09-15T04:08:21.804Z,96621.88
2022-09-15T04:10:48.409Z,96666.38
2022-09-15T04:13:15.023Z,96682.22
2022-09-15T04:15:41.595Z,96661.53
2022-09-15T04:18:08.845Z,96609.16
2022-09-15T04:20:39.347Z,96693.28
2022-09-15T04:23:06.284Z,96613.81
2022-09-15T04:25:32.874Z,96684.44
2022-09-15T04:27:59.657Z,96652.72
2022-09-15T04:30:26.306Z,96629.16
2022-09-15T04:32:53.978Z,96678.72
2022-09-15T04:35:21.965Z,96595.47
2022-09-15T04:37:48.706Z,96687.50
2022-09-15T04:40:15.599Z,96700.22
2022-09-15T04:42:42.203Z,96650.19
2022-09-15T04:45:09.322Z,96689.78
2022-09-15T04:47:35.958Z,96651.31
2022-09-15T04:50:02.618Z,96579.47
2022-09-15T04:52:29.245Z,96709.56
2022-09-15T04:54:55.874Z,96715.09
2022-09-15T04:57:22.462Z,96707.19
2022-09-15T04:59:49.023Z,96704.69
2022-09-15T05:02:15.703Z,96603.00
2022-09-15T05:04:42.390Z,96695.63
2022-09-15T05:07:09.027Z,96703.47
2022-09-15T05:09:35.622Z,96395.03
2022-09-15T05:12:02.402Z,96704.03
2022-09-15T05:14:28.997Z,96688.69
2022-09-15T05:16:55.594Z,96686.91
2022-09-15T05:19:22.270Z,96688.38
2022-09-15T05:21:48.822Z,96686.25
2022-09-15T05:24:15.455Z,96679.47
2022-09-15T05:26:42.076Z,96619.06
2022-09-15T05:29:08.687Z,96682.59
2022-09-15T05:31:35.411Z,96630.56
2022-09-15T05:34:04.425Z,96673.78
2022-09-15T05:36:31.553Z,96678.31
2022-09-15T05:38:58.701Z,96674.19
2022-09-15T05:41:27.184Z,96672.53
2022-09-15T05:43:55.421Z,96621.31
2022-09-15T05:46:22.589Z,96639.72
2022-09-15T05:48:49.287Z,96491.91
2022-09-15T05:51:15.944Z,96331.81
2022-09-15T05:53:42.669Z,96636.66
2022-09-15T05:56:14.435Z,96678.78
2022-09-15T05:58:42.619Z,96628.59
2022-09-15T06:01:14.074Z,96637.78
2022-09-15T06:03:41.043Z,96670.63
2022-09-15T06:06:08.067Z,96639.53
2022-09-15T06:08:37.242Z,96615.28
2022-09-15T06:11:06.382Z,96664.63
2022-09-15T06:13:33.350Z,96653.69
2022-09-15T06:16:07.714Z,96644.84
2022-09-15T06:18:37.172Z,96626.09
2022-09-15T06:21:09.625Z,96611.66
2022-09-15T06:23:37.079Z,96570.34
2022-09-15T06:26:09.449Z,96656.16
2022-09-15T06:28:36.145Z,96530.03
2022-09-15T06:31:03.512Z,96581.09
2022-09-15T06:33:30.289Z,96342.56
2022-09-15T06:35:57.015Z,96648.78
2022-09-15T06:38:23.572Z,96592.63
2022-09-15T06:40:59.787Z,96594.78
2022-09-15T06:43:26.803Z,96653.78
2022-09-15T06:45:53.504Z,96614.56
2022-09-15T06:48:24.945Z,96663.97
2022-09-15T06:50:55.117Z,96537.91
2022-09-15T06:53:21.973Z,96399.41
2022-09-15T06:55:48.853Z,96632.75
2022-09-15T06:58:15.644Z,96621.91
2022-09-15T07:00:43.057Z,96553.47
2022-09-15T07:03:09.839Z,96647.28
2022-09-15T07:05:36.479Z,96540.28
2022-09-15T07:08:03.361Z,96646.41
2022-09-15T07:10:29.900Z,96644.63
2022-09-15T07:12:56.676Z,96644.63
2022-09-15T07:15:25.966Z,96535.13
2022-09-15T07:17:52.561Z,96626.09
2022-09-15T07:20:19.110Z,96617.91
2022-09-15T07:22:45.751Z,96518.13
2022-09-15T07:25:12.336Z,96625.34
2022-09-15T07:27:38.949Z,96556.47
2022-09-15T07:30:08.600Z,96608.59
2022-09-15T07:32:35.220Z,96499.78
2022-09-15T07:35:02.370Z,96569.47
2022-09-15T07:37:29.034Z,96538.81
2022-09-15T07:39:55.650Z,96341.91
2022-09-15T07:42:22.327Z,96632.97
2022-09-15T07:44:48.901Z,96629.88
2022-09-15T07:47:15.506Z,96525.25
2022-09-15T07:49:43.359Z,96543.63
2022-09-15T07:52:10.284Z,96634.56
2022-09-15T07:54:36.827Z,96627.78
2022-09-15T07:57:03.474Z,96524.41
2022-09-15T07:59:30.245Z,96632.34
2022-09-15T08:01:56.906Z,96624.63
2022-09-15T08:04:23.682Z,96459.59
2022-09-15T08:06:50.337Z,96592.88
2022-09-15T08:09:17.809Z,96617.34
2022-09-15T08:11:44.667Z,96620.53
2022-09-15T08:14:11.207Z,96607.31
2022-09-15T08:16:38.703Z,96614.81
2022-09-15T08:19:05.435Z,96617.38
2022-09-15T08:21:32.085Z,96605.56
2022-09-15T08:23:59.935Z,96610.47
2022-09-15T08:26:28.044Z,96613.38
2022-09-15T08:28:54.964Z,96615.28
2022-09-15T08:31:24.137Z,96486.00
2022-09-15T08:33:53.426Z,96591.75
2022-09-15T08:36:20.640Z,96576.25
2022-09-15T08:38:47.694Z,96400.56
2022-09-15T08:41:37.376Z,96525.75
2022-09-15T08:44:25.348Z,96600.94
2022-09-15T08:47:07.186Z,96595.63
2022-09-15T08:50:00.178Z,96605.81
2022-09-15T08:52:50.807Z,96573.63
2022-09-15T08:55:52.276Z,96588.34
2022-09-15T08:58:25.465Z,96577.50
2022-09-15T09:00:57.342Z,96585.56
2022-09-15T09:03:38.563Z,96555.19
2022-09-15T09:06:20.219Z,96559.41
2022-09-15T09:09:05.868Z,96576.13
2022-09-15T09:11:40.936Z,96570.31
2022-09-15T09:14:14.850Z,96565.16
2022-09-15T09:16:59.537Z,96560.03
2022-09-15T09:19:46.208Z,96560.34
2022-09-15T09:22:20.943Z,96560.28
2022-09-15T09:24:55.232Z,96443.94
2022-09-15T09:27:43.466Z,96560.63
2022-09-15T09:30:17.628Z,96520.25
2022-09-15T09:33:22.253Z,96544.19
2022-09-15T09:35:53.000Z,96541.31
2022-09-15T09:38:30.691Z,96542.34
2022-09-15T09:41:01.402Z,96539.78
2022-09-15T09:43:30.152Z,96414.06
2022-09-15T09:45:56.919Z,96497.53
2022-09-15T09:48:27.742Z,96497.28
2022-09-15T09:50:55.332Z,96535.75
2022-09-15T09:53:25.668Z,96526.09
2022-09-15T09:55:55.310Z,96514.22
2022-09-15T09:58:25.875Z,96478.06
2022-09-15T10:00:53.157Z,96342.31
2022-09-15T10:03:23.012Z,96509.19
2022-09-15T10:06:01.412Z,96514.41
2022-09-15T10:08:28.112Z,96473.03
2022-09-15T10:10:58.439Z,96523.47
2022-09-15T10:13:25.127Z,96480.84
2022-09-15T10:15:59.595Z,96494.94
2022-09-15T10:18:33.698Z,96381.22
2022-09-15T10:21:03.251Z,96512.00
2022-09-15T10:23:31.495Z,96413.38
2022-09-15T10:26:16.102Z,96504.31
2022-09-15T10:28:43.988Z,96494.13
2022-09-15T10:31:13.398Z,96489.44
2022-09-15T10:33:42.674Z,96468.69
2022-09-15T10:36:18.762Z,96488.00
2022-09-15T10:38:48.621Z,96436.22
2022-09-15T10:41:28.595Z,96490.00
2022-09-15T10:44:33.610Z,96462.31
2022-09-15T10:47:12.070Z,96477.19
2022-09-15T10:49:38.567Z,96472.69
2022-09-15T10:52:17.270Z,96471.38
2022-09-15T10:55:05.785Z,96473.84
2022-09-15T10:58:07.784Z,96470.88
2022-09-15T11:00:59.907Z,96301.63
2022-09-15T11:04:13.107Z,96467.59
2022-09-15T11:06:55.839Z,96466.34
2022-09-15T11:09:34.937Z,96454.94
2022-09-15T11:12:30.151Z,96455.44
2022-09-15T11:15:18.057Z,96448.56
2022-09-15T11:18:04.377Z,96445.94
2022-09-15T11:20:49.591Z,96445.44
2022-09-15T11:23:32.552Z,96442.41
2022-09-15T11:26:06.084Z,96169.03
2022-09-15T11:28:49.388Z,96427.19
2022-09-15T11:31:22.114Z,96422.09
2022-09-15T11:33:55.252Z,96430.56
2022-09-15T11:36:49.271Z,96418.66
2022-09-15T11:39:24.074Z,96416.00
2022-09-15T11:41:56.696Z,96318.94
2022-09-15T11:44:32.114Z,96414.13
2022-09-15T11:47:25.251Z,96411.19
2022-09-15T11:50:20.710Z,96408.50
2022-09-15T11:52:57.899Z,96404.03
2022-09-15T11:55:36.463Z,96406.03
2022-09-15T11:58:09.242Z,96412.75
2022-09-15T12:00:44.792Z,96411.72
2022-09-15T12:03:32.553Z,96398.25
2022-09-15T12:06:28.268Z,96398.56
2022-09-15T12:09:11.829Z,96292.06
2022-09-15T12:11:44.228Z,96394.38
2022-09-15T12:14:17.092Z,96392.22
2022-09-15T12:16:44.956Z,96333.25
2022-09-15T12:19:19.044Z,96346.34
2022-09-15T12:21:56.109Z,96249.97
2022-09-15T12:24:38.714Z,96373.53
2022-09-15T12:27:05.476Z,96274.47
2022-09-15T12:29:42.100Z,96346.88
2022-09-15T12:32:20.166Z,96373.53
2022-09-15T12:34:58.947Z,96375.47
2022-09-15T12:37:52.525Z,96298.81
2022-09-15T12:40:33.211Z,96370.88
2022-09-15T12:43:12.920Z,96370.84
2022-09-15T12:45:42.156Z,96118.44
2022-09-15T12:48:20.492Z,96336.31
2022-09-15T12:50:57.029Z,96306.44
2022-09-15T12:56:10.409Z,96130.31
2022-09-15T12:58:46.162Z,96364.03
2022-09-15T13:01:19.283Z,96375.41
2022-09-15T13:03:46.250Z,96367.59
2022-09-15T13:06:29.432Z,96376.78
2022-09-15T13:09:01.768Z,96362.19
2022-09-15T13:11:34.319Z,96365.59
2022-09-15T13:14:04.028Z,96364.97
2022-09-15T13:17:08.219Z,96371.97
2022-09-15T13:19:41.248Z,96369.19
2022-09-15T13:22:10.818Z,96363.59
2022-09-15T13:24:46.705Z,96348.19
2022-09-15T13:27:17.799Z,96360.72
2022-09-15T13:29:52.375Z,96306.69
2022-09-15T13:32:41.042Z,96357.84
2022-09-15T13:35:45.224Z,96353.88
2022-09-15T13:38:50.177Z,96358.00
2022-09-15T13:41:33.324Z,96370.56
2022-09-15T13:44:29.866Z,96355.53
2022-09-15T13:47:08.518Z,96343.63
2022-09-15T13:49:59.696Z,96347.03
2022-09-15T13:53:03.959Z,96350.38
2022-09-15T13:55:42.321Z,96347.66
2022-09-15T14:01:07.677Z,96341.25
2022-09-15T14:03:39.801Z,96332.97
2022-09-15T14:06:20.889Z,96338.94
2022-09-15T14:08:52.973Z,96315.78
2022-09-15T14:11:30.228Z,96215.09
2022-09-15T14:13:59.338Z,96272.03
2022-09-15T14:16:52.700Z,96327.84
2022-09-15T14:19:35.909Z,96337.03
2022-09-15T14:22:20.793Z,96332.09
2022-09-15T14:24:47.893Z,96327.22
2022-09-15T14:27:29.758Z,96333.16
2022-09-15T14:30:01.474Z,96333.50
2022-09-15T14:32:38.594Z,96329.94
2022-09-15T14:35:07.820Z,96326.56
2022-09-15T14:37:34.937Z,96264.59
2022-09-15T14:40:16.651Z,96322.06
2022-09-15T14:42:43.587Z,96269.41
2022-09-15T14:48:15.647Z,96311.81
2022-09-15T14:50:44.894Z,96320.63
2022-09-15T14:53:18.155Z,96198.84
2022-09-15T14:56:08.260Z,96327.22
2022-09-15T14:58:47.014Z,96328.69
2022-09-15T15:01:27.780Z,96321.63
2022-09-15T15:04:10.908Z,96300.69
2022-09-15T15:06:43.709Z,96305.13
2022-09-15T15:09:24.121Z,96303.09
2022-09-15T15:11:56.858Z,96209.97
2022-09-15T15:14:24.007Z,96209.03
2022-09-15T15:16:56.926Z,96306.09
2022-09-15T15:19:42.781Z,96311.63
2022-09-15T15:22:12.474Z,96317.22
2022-09-15T15:24:48.846Z,96314.50
2022-09-15T15:27:33.669Z,96319.88
2022-09-15T15:30:30.531Z,96314.59
2022-09-15T15:33:03.161Z,96310.22
2022-09-15T15:35:31.002Z,96315.06
2022-09-15T15:38:06.375Z,96288.13
2022-09-15T15:40:35.362Z,96313.03
2022-09-15T15:43:13.737Z,96300.47
2022-09-15T15:46:00.742Z,96296.88
2022-09-15T15:48:34.010Z,96290.84
2022-09-15T15:51:04.809Z,96271.69
2022-09-15T15:53:31.654Z,96305.72
2022-09-15T15:55:59.737Z,96240.34
2022-09-15T15:58:27.244Z,96322.72
2022-09-15T16:00:56.705Z,96306.16
2022-09-15T16:03:25.054Z,96284.25
2022-09-15T16:05:54.651Z,96318.38
2022-09-15T16:08:34.345Z,96313.50
2022-09-15T16:11:02.885Z,96313.84
2022-09-15T16:13:30.529Z,96312.88
2022-09-15T16:16:00.264Z,96312.66
2022-09-15T16:18:28.178Z,96319.94
2022-09-15T16:20:55.292Z,96314.97
2022-09-15T16:23:23.548Z,96284.81
2022-09-15T16:26:02.654Z,96325.84
2022-09-15T16:28:29.939Z,96338.78
2022-09-15T16:30:59.550Z,96280.41
2022-09-15T16:33:27.045Z,96342.22
2022-09-15T16:36:08.433Z,96345.78
2022-09-15T16:38:36.345Z,96341.47
2022-09-15T16:41:06.126Z,96331.03
2022-09-15T16:43:32.788Z,96311.06
2022-09-15T16:45:59.507Z,96331.88
2022-09-15T16:48:28.474Z,96342.81
2022-09-15T16:51:20.619Z,96354.13
2022-09-15T16:53:41.967Z,96344.09
2022-09-15T16:56:11.651Z,96332.22
2022-09-15T16:58:38.916Z,96351.56
2022-09-15T17:01:06.664Z,96338.16
2022-09-15T17:03:33.742Z,96297.00
2022-09-15T17:06:01.994Z,96347.69
2022-09-15T17:08:33.341Z,96353.25
2022-09-15T17:11:04.801Z,96338.84
2022-09-15T17:13:33.793Z,96363.44
2022-09-15T17:16:01.584Z,96357.47
2022-09-15T17:18:29.185Z,96281.13
2022-09-15T17:20:56.324Z,96216.31
2022-09-15T17:23:28.222Z,96309.03
2022-09-15T17:25:59.087Z,96356.09
2022-09-15T17:28:31.751Z,96368.44
2022-09-15T17:31:00.671Z,96368.22
2022-09-15T17:33:29.362Z,96373.34
2022-09-15T17:35:56.493Z,96338.59
2022-09-15T17:38:23.670Z,96328.72
2022-09-15T17:40:51.611Z,96367.00
2022-09-15T17:43:23.911Z,96228.34
2022-09-15T17:45:51.783Z,96308.63
2022-09-15T17:48:18.808Z,96380.81
2022-09-15T17:50:49.302Z,96369.06
2022-09-15T17:53:22.627Z,96301.94
2022-09-15T17:55:51.209Z,96378.19
2022-09-15T17:58:18.677Z,96373.91
2022-09-15T18:00:46.171Z,96379.94
2022-09-15T18:03:28.052Z,96375.22
2022-09-15T18:05:56.918Z,96340.69
2022-09-15T18:08:23.641Z,96368.25
2022-09-15T18:10:50.735Z,96345.88
2022-09-15T18:13:20.336Z,96276.44
2022-09-15T18:15:49.059Z,96344.56
2022-09-15T18:18:19.821Z,96383.19
2022-09-15T18:20:47.120Z,96245.09
2022-09-15T18:23:17.259Z,96378.78
2022-09-15T18:25:44.709Z,96395.06
2022-09-15T18:28:11.443Z,96302.47
2022-09-15T18:30:42.969Z,96232.50
2022-09-15T18:33:20.501Z,96395.13
2022-09-15T18:35:49.691Z,96401.09
2022-09-15T18:38:16.720Z,96368.03
2022-09-15T18:40:45.556Z,96391.38
2022-09-15T18:43:12.686Z,96265.81
2022-09-15T18:45:40.617Z,96324.50
2022-09-15T18:48:11.958Z,96390.81
2022-09-15T18:50:40.894Z,96385.91
2022-09-15T18:53:07.654Z,96277.75
2022-09-15T18:55:34.332Z,96393.03
2022-09-15T18:58:01.446Z,96271.16
2022-09-15T19:00:29.098Z,96354.22
2022-09-15T19:02:58.305Z,96292.03
2022-09-15T19:05:25.555Z,96378.59
2022-09-15T19:07:52.403Z,96245.56
2022-09-15T19:10:19.559Z,96378.59
2022-09-15T19:12:46.251Z,96307.88
2022-09-15T19:15:14.008Z,96380.28
2022-09-15T19:17:41.864Z,96380.72
2022-09-15T19:20:10.687Z,96375.22
2022-09-15T19:22:37.827Z,96318.47
2022-09-15T19:25:06.354Z,96383.34
2022-09-15T19:27:33.261Z,96344.53
2022-09-15T19:30:00.241Z,96384.75
2022-09-15T19:32:27.798Z,96366.47
2022-09-15T19:34:54.438Z,96325.25
2022-09-15T19:37:21.899Z,96379.66
2022-09-15T19:39:49.544Z,96369.94
2022-09-15T19:42:16.770Z,96292.88
2022-09-15T19:44:43.525Z,96283.44
2022-09-15T19:47:10.695Z,96229.63
2022-09-15T19:49:37.763Z,96314.03
2022-09-15T19:52:06.524Z,96367.00
2022-09-15T19:54:34.550Z,96367.25
2022-09-15T19:57:02.157Z,96364.63
2022-09-15T19:59:31.678Z,96333.34
2022-09-15T20:02:00.021Z,96356.91
2022-09-15T20:04:27.754Z,96105.59
2022-09-15T20:06:54.665Z,96355.97
2022-09-15T20:09:21.364Z,96342.13
2022-09-15T20:11:48.023Z,96366.75
2022-09-15T20:14:15.017Z,96270.72
2022-09-15T20:16:41.811Z,96333.59
2022-09-15T20:19:08.821Z,96342.03
2022-09-15T20:21:52.538Z,96196.31
2022-09-15T20:24:20.075Z,96371.00
2022-09-15T20:26:46.799Z,96390.78
2022-09-15T20:29:13.876Z,96371.41
2022-09-15T20:31:41.062Z,96305.13
2022-09-15T20:34:07.839Z,96373.88
2022-09-15T20:36:36.818Z,96368.53
2022-09-15T20:39:06.303Z,96371.28
2022-09-15T20:41:33.077Z,96359.53
2022-09-15T20:44:00.236Z,96362.75
2022-09-15T20:46:28.879Z,96308.41
2022-09-15T20:48:55.445Z,96245.06
2022-09-15T20:51:25.668Z,96364.53
2022-09-15T20:53:54.608Z,96356.69
2022-09-15T20:56:24.971Z,96308.53
2022-09-15T20:58:56.979Z,96351.50
2022-09-15T21:01:27.083Z,96347.13
2022-09-15T21:03:55.419Z,96349.06
2022-09-15T21:06:25.514Z,96362.09
2022-09-15T21:08:53.522Z,96365.78
2022-09-15T21:11:21.159Z,96367.00
2022-09-15T21:13:49.417Z,96383.31
2022-09-15T21:16:21.807Z,96350.28
2022-09-15T21:18:50.074Z,96357.63
2022-09-15T21:21:25.902Z,96244.09
2022-09-15T21:23:58.651Z,96306.25
2022-09-15T21:26:27.186Z,96360.38
2022-09-15T21:28:55.768Z,96352.78
2022-09-15T21:31:28.218Z,96329.63
2022-09-15T21:33:55.719Z,96334.63
2022-09-15T21:36:25.231Z,96201.50
2022-09-15T21:38:54.167Z,96287.00
2022-09-15T21:41:23.608Z,96184.00
2022-09-15T21:43:55.360Z,96305.44
2022-09-15T21:46:24.786Z,96316.34
2022-09-15T21:48:51.845Z,96336.47
2022-09-15T21:51:24.191Z,96345.50
2022-09-15T21:53:53.038Z,96344.34
2022-09-15T21:56:20.726Z,96353.16
2022-09-15T21:58:47.551Z,96318.16
2022-09-15T22:01:19.912Z,96349.66
2022-09-15T22:03:55.397Z,96340.31
2022-09-15T22:06:27.718Z,96189.41
2022-09-15T22:08:55.399Z,96281.22
2022-09-15T22:11:23.308Z,96353.47
2022-09-15T22:13:50.066Z,96345.56
2022-09-15T22:16:20.132Z,96324.53
2022-09-15T22:18:48.014Z,96353.81
2022-09-15T22:21:16.058Z,96356.28
2022-09-15T22:23:44.267Z,96350.44
2022-09-15T22:26:15.607Z,96338.72
2022-09-15T22:28:42.665Z,96317.44
2022-09-15T22:31:11.842Z,96316.22
2022-09-15T22:33:40.963Z,96361.00
2022-09-15T22:36:15.457Z,96368.41
2022-09-15T22:38:42.359Z,96358.72
2022-09-15T22:41:14.507Z,96336.69
2022-09-15T22:43:43.075Z,96365.84
2022-09-15T22:46:11.235Z,96373.25
2022-09-15T22:48:43.042Z,96362.56
2022-09-15T22:51:10.536Z,96251.56
2022-09-15T22:53:37.148Z,96372.19
2022-09-15T22:56:14.414Z,96392.13
2022-09-15T22:58:43.903Z,96382.22
2022-09-15T23:01:14.378Z,96044.78
2022-09-15T23:03:41.766Z,96368.16
2022-09-15T23:06:08.587Z,96334.50
2022-09-15T23:08:37.318Z,96380.44
2022-09-15T23:11:06.762Z,96340.16
2022-09-15T23:13:34.033Z,96374.13
2022-09-15T23:16:00.960Z,96344.41
2022-09-15T23:18:28.100Z,96368.09
2022-09-15T23:21:09.209Z,96365.47
2022-09-15T23:23:37.587Z,96367.66
2022-09-15T23:26:06.152Z,96363.88
2022-09-15T23:28:33.433Z,96372.13
2022-09-15T23:31:00.349Z,96306.78
2022-09-15T23:33:31.514Z,96368.94
2022-09-15T23:36:03.154Z,96311.56
2022-09-15T23:38:30.095Z,96363.94
2022-09-15T23:40:56.860Z,96152.56
2022-09-15T23:43:23.550Z,96371.66
2022-09-15T23:45:51.303Z,96361.41
2022-09-15T23:48:18.041Z,96309.59
2022-09-15T23:50:44.907Z,96341.66
2022-09-15T23:53:12.319Z,96357.44
2022-09-15T23:55:39.133Z,96367.28
2022-09-15T23:58:06.165Z,96373.59
